Time;durP1;ratioP1;P1;durP2;ratioP2;P2;SDS_P1;SDS_P2;PMS_P1;PMS_P2;Temp;Humidity;BMP_temperature;BMP_pressure;BME280_temperature;BME280_humidity;BME280_pressure;Samples;Min_cycle;Max_cycle;Signal;HPM_P1;HPM_P2
2024/01/21 00:02:14;;;;;;;;;;;-5.40;99.90;;;;;;5017577;28;19988;-69
2024/01/21 00:04:41;;;;;;;;;;;-5.40;99.90;;;;;;5023594;28;19930;-70
2024/01/21 00:07:09;;;;;;;;;;;-5.40;99.90;;;;;;5034685;28;19971;-69
2024/01/21 00:09:36;;;;;;;;;;;-5.40;99.90;;;;;;5020249;28;19964;-68
2024/01/21 00:12:02;;;;;;;;;;;-5.30;99.90;;;;;;5025199;28;19988;-69
2024/01/21 00:14:29;;;;;;;;;;;-5.40;99.90;;;;;;5032028;28;19928;-69
2024/01/21 00:16:56;;;;;;;;;;;-5.40;99.90;;;;;;5029149;28;19922;-72
2024/01/21 00:19:22;;;;;;;;;;;-5.40;99.90;;;;;;5017099;28;19953;-69
2024/01/21 00:21:49;;;;;;;;;;;-5.40;99.90;;;;;;5025579;28;20008;-68
2024/01/21 00:24:17;;;;;;;;;;;-5.50;99.90;;;;;;5012845;28;19997;-71
2024/01/21 00:26:43;;;;;;;;;;;-5.50;99.90;;;;;;5027056;28;19964;-69
2024/01/21 00:29:10;;;;;;;;;;;-5.60;99.90;;;;;;5022133;28;19948;-68
2024/01/21 00:31:36;;;;;;;;;;;-5.50;99.90;;;;;;5015769;28;19921;-68
2024/01/21 00:34:03;;;;;;;;;;;-5.50;99.90;;;;;;5016131;28;19981;-69
2024/01/21 00:36:30;;;;;;;;;;;-5.60;99.90;;;;;;5041149;28;20274;-69
2024/01/21 00:38:56;;;;;;;;;;;-5.60;99.90;;;;;;5026968;28;19984;-69
2024/01/21 00:41:24;;;;;;;;;;;-5.60;99.90;;;;;;5023668;28;19988;-70
2024/01/21 00:43:51;;;;;;;;;;;-5.60;99.90;;;;;;5032085;28;19922;-69
2024/01/21 00:46:17;;;;;;;;;;;-5.60;99.90;;;;;;5021792;28;19984;-69
2024/01/21 00:48:44;;;;;;;;;;;-5.60;99.90;;;;;;5023978;28;19984;-68
2024/01/21 00:51:11;;;;;;;;;;;-5.70;99.90;;;;;;5033294;28;21213;-69
2024/01/21 00:53:37;;;;;;;;;;;-5.70;99.90;;;;;;5028669;28;19921;-68
2024/01/21 00:56:04;;;;;;;;;;;-5.70;99.90;;;;;;5029035;28;19952;-68
2024/01/21 00:58:32;;;;;;;;;;;-5.70;99.90;;;;;;5028039;28;19953;-68
2024/01/21 01:00:59;;;;;;;;;;;-5.70;99.90;;;;;;5027722;28;19928;-70
2024/01/21 01:03:25;;;;;;;;;;;-5.70;99.90;;;;;;4999395;28;20172;-70
2024/01/21 01:05:52;;;;;;;;;;;-5.70;99.90;;;;;;5017447;28;19932;-68
2024/01/21 01:08:19;;;;;;;;;;;-5.70;99.90;;;;;;5015713;28;19989;-68
2024/01/21 01:10:45;;;;;;;;;;;-5.70;99.90;;;;;;5020037;28;19928;-69
2024/01/21 01:13:12;;;;;;;;;;;-5.80;99.90;;;;;;5014135;28;19961;-69
2024/01/21 01:15:40;;;;;;;;;;;-5.80;99.90;;;;;;5019673;28;19921;-70
2024/01/21 01:18:07;;;;;;;;;;;-5.80;99.90;;;;;;5027660;28;19960;-68
2024/01/21 01:20:33;;;;;;;;;;;-5.80;99.90;;;;;;5028246;28;19937;-69
2024/01/21 01:23:01;;;;;;;;;;;-5.80;99.90;;;;;;5021612;28;19921;-70
2024/01/21 01:25:27;;;;;;;;;;;-5.80;99.90;;;;;;5039643;28;19928;-68
2024/01/21 01:27:54;;;;;;;;;;;-5.80;99.90;;;;;;5023573;28;20130;-69
2024/01/21 01:30:20;;;;;;;;;;;-5.80;99.90;;;;;;5035155;28;19928;-69
2024/01/21 01:32:48;;;;;;;;;;;-5.80;99.90;;;;;;5030140;28;20122;-70
2024/01/21 01:35:15;;;;;;;;;;;-5.80;99.90;;;;;;5024395;28;19980;-69
2024/01/21 01:37:42;;;;;;;;;;;-5.90;99.90;;;;;;5030681;28;19980;-68
2024/01/21 01:40:09;;;;;;;;;;;-5.90;99.90;;;;;;5032349;28;19927;-68
2024/01/21 01:42:35;;;;;;;;;;;-5.90;99.90;;;;;;5037546;28;19921;-70
2024/01/21 01:45:02;;;;;;;;;;;-5.90;99.90;;;;;;5032322;28;19963;-69
2024/01/21 01:47:29;;;;;;;;;;;-5.90;99.90;;;;;;5026930;28;19960;-69
2024/01/21 01:49:57;;;;;;;;;;;-5.90;99.90;;;;;;5038775;28;19952;-69
2024/01/21 01:52:24;;;;;;;;;;;-5.90;99.90;;;;;;5034670;28;19956;-68
2024/01/21 01:54:49;;;;;;;;;;;-5.90;99.90;;;;;;5026010;28;19956;-69
2024/01/21 01:57:16;;;;;;;;;;;-6.00;99.90;;;;;;5021936;28;19925;-70
2024/01/21 01:59:43;;;;;;;;;;;-6.00;99.90;;;;;;5037558;28;19928;-68
2024/01/21 02:02:10;;;;;;;;;;;-6.00;99.90;;;;;;5030249;28;20475;-68
2024/01/21 02:04:37;;;;;;;;;;;-5.90;99.90;;;;;;5026461;28;19952;-69
2024/01/21 02:07:05;;;;;;;;;;;-5.90;99.90;;;;;;5035309;28;19956;-68
2024/01/21 02:09:31;;;;;;;;;;;-5.90;99.90;;;;;;5012940;28;19972;-68
2024/01/21 02:11:59;;;;;;;;;;;-5.90;99.90;;;;;;5024483;28;19980;-69
2024/01/21 02:14:25;;;;;;;;;;;-5.90;99.90;;;;;;5025431;28;20257;-70
2024/01/21 02:16:52;;;;;;;;;;;-5.90;99.90;;;;;;5029929;28;20001;-68
2024/01/21 02:19:24;;;;;;;;;;;-5.90;99.90;;;;;;5035254;28;19957;-69
2024/01/21 02:21:51;;;;;;;;;;;-5.90;99.90;;;;;;5037224;28;19929;-69
2024/01/21 02:24:19;;;;;;;;;;;-5.90;99.90;;;;;;5027810;28;19980;-69
2024/01/21 02:26:47;;;;;;;;;;;-6.00;99.90;;;;;;5023983;28;19989;-69
2024/01/21 02:29:14;;;;;;;;;;;-6.00;99.90;;;;;;5039539;28;19921;-68
2024/01/21 02:31:41;;;;;;;;;;;-6.00;99.90;;;;;;5038321;28;19952;-69
2024/01/21 02:34:07;;;;;;;;;;;-6.00;99.90;;;;;;5026856;28;19968;-68
2024/01/21 02:36:34;;;;;;;;;;;-6.00;99.90;;;;;;5037156;28;19992;-67
2024/01/21 02:39:00;;;;;;;;;;;-6.00;99.90;;;;;;5031532;28;19921;-68
2024/01/21 02:41:28;;;;;;;;;;;-6.10;99.90;;;;;;5025848;28;19977;-68
2024/01/21 02:43:55;;;;;;;;;;;-6.00;99.90;;;;;;5026345;28;19953;-68
2024/01/21 02:46:22;;;;;;;;;;;-6.10;99.90;;;;;;5038098;28;19988;-69
2024/01/21 02:48:48;;;;;;;;;;;-6.10;99.90;;;;;;5015822;28;19987;-69
2024/01/21 02:51:15;;;;;;;;;;;-6.10;99.90;;;;;;5034094;28;20176;-67
2024/01/21 02:53:42;;;;;;;;;;;-6.10;99.90;;;;;;5037499;28;19991;-68
2024/01/21 02:56:08;;;;;;;;;;;-6.20;99.90;;;;;;5027126;28;19984;-74
2024/01/21 02:58:36;;;;;;;;;;;-6.20;99.90;;;;;;5027691;28;20155;-68
2024/01/21 03:01:03;;;;;;;;;;;-6.20;99.90;;;;;;5039742;28;19921;-68
2024/01/21 03:03:30;;;;;;;;;;;-6.20;99.90;;;;;;5033119;28;19956;-69
2024/01/21 03:05:56;;;;;;;;;;;-6.20;99.90;;;;;;5036978;28;19928;-70
2024/01/21 03:08:23;;;;;;;;;;;-6.20;99.90;;;;;;5029644;28;19922;-71
2024/01/21 03:10:50;;;;;;;;;;;-6.30;99.90;;;;;;5020789;28;19922;-70
2024/01/21 03:13:17;;;;;;;;;;;-6.30;99.90;;;;;;5033142;28;19981;-70
2024/01/21 03:15:45;;;;;;;;;;;-6.30;99.90;;;;;;5028658;28;20215;-67
2024/01/21 03:18:11;;;;;;;;;;;-6.30;99.90;;;;;;5026426;28;19960;-68
2024/01/21 03:20:38;;;;;;;;;;;-6.30;99.90;;;;;;5031926;28;19921;-68
2024/01/21 03:23:05;;;;;;;;;;;-6.30;99.90;;;;;;5027419;28;20233;-67
2024/01/21 03:25:31;;;;;;;;;;;-6.20;99.90;;;;;;5032037;28;19929;-68
2024/01/21 03:27:58;;;;;;;;;;;-6.30;99.90;;;;;;5034481;28;19989;-69
2024/01/21 03:30:26;;;;;;;;;;;-6.30;99.90;;;;;;5034539;28;19920;-68
2024/01/21 03:32:54;;;;;;;;;;;-6.30;99.90;;;;;;5027900;28;20210;-68
2024/01/21 03:35:20;;;;;;;;;;;-6.30;99.90;;;;;;5027880;28;19957;-68
2024/01/21 03:37:47;;;;;;;;;;;-6.30;99.90;;;;;;5037575;28;19980;-68
2024/01/21 03:40:13;;;;;;;;;;;-6.30;99.90;;;;;;5031593;28;20215;-71
2024/01/21 03:42:40;;;;;;;;;;;-6.30;99.90;;;;;;5029588;28;20179;-70
2024/01/21 03:45:07;;;;;;;;;;;-6.30;99.90;;;;;;5019573;28;19922;-69
2024/01/21 03:47:34;;;;;;;;;;;-6.30;99.90;;;;;;5036968;28;19957;-69
2024/01/21 03:50:03;;;;;;;;;;;-6.30;99.90;;;;;;5015159;28;19984;-68
2024/01/21 03:52:29;;;;;;;;;;;-6.30;99.90;;;;;;5022348;28;19921;-69
2024/01/21 03:54:56;;;;;;;;;;;-6.30;99.90;;;;;;5036974;28;19925;-68
2024/01/21 03:57:22;;;;;;;;;;;-6.30;99.90;;;;;;5019376;28;19976;-68
2024/01/21 03:59:49;;;;;;;;;;;-6.30;99.90;;;;;;5034030;28;19956;-68
2024/01/21 04:02:16;;;;;;;;;;;-6.20;99.90;;;;;;5031351;28;19922;-69
2024/01/21 04:04:44;;;;;;;;;;;-6.30;99.90;;;;;;5028032;28;20211;-69
2024/01/21 04:07:12;;;;;;;;;;;-6.30;99.90;;;;;;5027956;28;20258;-69
2024/01/21 04:09:39;;;;;;;;;;;-6.30;99.90;;;;;;5023934;28;19965;-68
2024/01/21 04:12:06;;;;;;;;;;;-6.30;99.90;;;;;;5022133;28;19980;-69
2024/01/21 04:14:33;;;;;;;;;;;-6.30;99.90;;;;;;5018172;28;19930;-68
2024/01/21 04:16:59;;;;;;;;;;;-6.30;99.90;;;;;;5014451;28;19921;-69
2024/01/21 04:19:26;;;;;;;;;;;-6.30;99.90;;;;;;5020595;28;20001;-70
2024/01/21 04:21:53;;;;;;;;;;;-6.30;99.90;;;;;;5029727;28;19921;-68
2024/01/21 04:24:20;;;;;;;;;;;-6.30;99.90;;;;;;5026657;28;19971;-70
2024/01/21 04:26:47;;;;;;;;;;;-6.30;99.90;;;;;;5015344;28;19922;-68
2024/01/21 04:29:14;;;;;;;;;;;-6.30;99.90;;;;;;4993838;28;19928;-70
2024/01/21 04:31:43;;;;;;;;;;;-6.40;99.90;;;;;;4995197;28;19930;-69
2024/01/21 04:34:09;;;;;;;;;;;-6.40;99.90;;;;;;4994766;28;19936;-69
2024/01/21 04:36:36;;;;;;;;;;;-6.40;99.90;;;;;;4999438;28;19956;-69
2024/01/21 04:39:03;;;;;;;;;;;-6.40;99.90;;;;;;4997649;28;19984;-69
2024/01/21 04:41:31;;;;;;;;;;;-6.50;99.90;;;;;;4993011;28;19929;-69
2024/01/21 04:43:58;;;;;;;;;;;-6.50;99.90;;;;;;4995446;28;19922;-68
2024/01/21 04:46:25;;;;;;;;;;;-6.50;99.90;;;;;;4994972;28;19992;-69
2024/01/21 04:48:52;;;;;;;;;;;-6.50;99.90;;;;;;4993637;28;19988;-68
2024/01/21 04:51:18;;;;;;;;;;;-6.60;99.90;;;;;;4999391;28;20040;-69
2024/01/21 04:53:45;;;;;;;;;;;-6.60;99.90;;;;;;4995415;28;19949;-69
2024/01/21 04:56:16;;;;;;;;;;;-6.60;99.90;;;;;;4997354;28;19992;-69
2024/01/21 04:58:44;;;;;;;;;;;-6.70;99.90;;;;;;4996595;28;19956;-69
2024/01/21 05:01:10;;;;;;;;;;;-6.70;99.90;;;;;;4992165;28;20212;-68
2024/01/21 05:03:37;;;;;;;;;;;-6.60;99.90;;;;;;4992157;28;19993;-69
2024/01/21 05:06:04;;;;;;;;;;;-6.50;99.90;;;;;;4996636;28;19927;-68
2024/01/21 05:08:31;;;;;;;;;;;-6.30;99.90;;;;;;4996616;28;19928;-70
2024/01/21 05:10:57;;;;;;;;;;;-6.10;99.90;;;;;;4994104;28;19986;-69
2024/01/21 05:13:24;;;;;;;;;;;-6.00;99.90;;;;;;4995979;28;19928;-69
2024/01/21 05:15:52;;;;;;;;;;;-5.80;99.90;;;;;;4997628;28;19960;-71
2024/01/21 05:18:20;;;;;;;;;;;-5.70;99.90;;;;;;4994204;28;20270;-70
2024/01/21 05:20:46;;;;;;;;;;;-5.70;99.90;;;;;;4997922;28;19934;-68
2024/01/21 05:23:13;;;;;;;;;;;-5.60;99.90;;;;;;4995436;28;19968;-69
2024/01/21 05:25:40;;;;;;;;;;;-5.50;99.90;;;;;;4993821;28;19997;-69
2024/01/21 05:28:06;;;;;;;;;;;-5.40;99.90;;;;;;4996285;28;20271;-68
2024/01/21 05:30:33;;;;;;;;;;;-5.30;99.90;;;;;;4997202;28;19922;-68
2024/01/21 05:33:01;;;;;;;;;;;-5.30;99.90;;;;;;4994256;28;19929;-69
2024/01/21 05:35:27;;;;;;;;;;;-5.20;99.90;;;;;;4995498;28;19988;-69
2024/01/21 05:37:54;;;;;;;;;;;-5.20;99.90;;;;;;4998815;28;19985;-68
2024/01/21 05:40:21;;;;;;;;;;;-5.10;99.90;;;;;;4995715;28;20019;-69
2024/01/21 05:42:47;;;;;;;;;;;-5.10;99.90;;;;;;4996236;28;19922;-69
2024/01/21 05:45:14;;;;;;;;;;;-5.10;99.90;;;;;;4997988;28;19997;-69
2024/01/21 05:47:40;;;;;;;;;;;-5.10;99.90;;;;;;4999093;28;19922;-69
2024/01/21 05:50:09;;;;;;;;;;;-5.00;99.90;;;;;;5006819;28;19927;-69
2024/01/21 05:52:36;;;;;;;;;;;-5.00;99.90;;;;;;5016152;28;19929;-71
2024/01/21 05:55:04;;;;;;;;;;;-4.90;99.90;;;;;;5024384;28;19960;-70
2024/01/21 05:57:30;;;;;;;;;;;-4.90;99.90;;;;;;5026608;28;19963;-69
2024/01/21 05:59:58;;;;;;;;;;;-4.90;99.90;;;;;;5033041;28;19932;-70
2024/01/21 06:02:25;;;;;;;;;;;-4.90;99.90;;;;;;5026677;28;19921;-69
2024/01/21 06:04:51;;;;;;;;;;;-4.80;99.90;;;;;;5038047;28;20153;-69
2024/01/21 06:07:19;;;;;;;;;;;-4.70;99.90;;;;;;5024475;28;19955;-69
2024/01/21 06:09:46;;;;;;;;;;;-4.80;99.90;;;;;;5021680;28;20245;-69
2024/01/21 06:12:13;;;;;;;;;;;-4.70;99.90;;;;;;5029836;28;19921;-69
2024/01/21 06:14:40;;;;;;;;;;;-4.70;99.90;;;;;;5039381;28;19921;-69
2024/01/21 06:17:06;;;;;;;;;;;-4.70;99.90;;;;;;5039971;28;19953;-69
2024/01/21 06:19:33;;;;;;;;;;;-4.70;99.90;;;;;;5031431;28;19949;-69
2024/01/21 06:21:59;;;;;;;;;;;-4.70;99.90;;;;;;5034928;28;19988;-69
2024/01/21 06:24:27;;;;;;;;;;;-4.70;99.90;;;;;;5032767;28;20024;-68
2024/01/21 06:26:54;;;;;;;;;;;-4.70;99.90;;;;;;5034009;28;19953;-70
2024/01/21 06:29:21;;;;;;;;;;;-4.70;99.90;;;;;;5040458;28;20139;-70
2024/01/21 06:31:47;;;;;;;;;;;-4.70;99.90;;;;;;5027839;28;19988;-68
2024/01/21 06:34:14;;;;;;;;;;;-4.60;99.90;;;;;;5027413;28;19927;-69
2024/01/21 06:36:41;;;;;;;;;;;-4.60;99.90;;;;;;5033443;28;19922;-70
2024/01/21 06:39:07;;;;;;;;;;;-4.60;99.90;;;;;;5030634;28;19928;-69
2024/01/21 06:41:35;;;;;;;;;;;-4.50;99.90;;;;;;5038223;28;19988;-68
2024/01/21 06:44:02;;;;;;;;;;;-4.50;99.90;;;;;;5039739;28;19984;-68
2024/01/21 06:46:28;;;;;;;;;;;-4.40;99.90;;;;;;5038184;28;19963;-68
2024/01/21 06:48:55;;;;;;;;;;;-4.50;99.90;;;;;;5029779;28;19961;-68
2024/01/21 06:51:31;;;;;;;;;;;-4.40;99.90;;;;;;5026627;28;20152;-68
2024/01/21 06:53:59;;;;;;;;;;;-4.40;99.90;;;;;;5016919;28;19922;-68
2024/01/21 06:56:25;;;;;;;;;;;-4.40;99.90;;;;;;5037689;28;19929;-68
2024/01/21 06:58:53;;;;;;;;;;;-4.40;99.90;;;;;;5036313;28;20059;-69
2024/01/21 07:01:20;;;;;;;;;;;-4.50;99.90;;;;;;5037928;28;19928;-69
2024/01/21 07:03:47;;;;;;;;;;;-4.40;99.90;;;;;;5029191;28;20112;-68
2024/01/21 07:06:13;;;;;;;;;;;-4.30;99.90;;;;;;5038794;28;19921;-69
2024/01/21 07:08:40;;;;;;;;;;;-4.30;99.90;;;;;;5027516;28;19953;-71
2024/01/21 07:11:07;;;;;;;;;;;-4.30;99.90;;;;;;5022593;28;19957;-69
2024/01/21 07:13:34;;;;;;;;;;;-4.30;99.90;;;;;;5024191;28;19984;-69
2024/01/21 07:16:02;;;;;;;;;;;-4.30;99.90;;;;;;5020701;28;19952;-69
2024/01/21 07:18:28;;;;;;;;;;;-4.20;99.90;;;;;;5027087;28;19952;-69
2024/01/21 07:20:55;;;;;;;;;;;-4.20;99.90;;;;;;5029717;28;19921;-68
2024/01/21 07:23:22;;;;;;;;;;;-4.20;99.90;;;;;;5036224;28;19921;-67
2024/01/21 07:25:49;;;;;;;;;;;-4.20;99.90;;;;;;5030967;28;19921;-68
2024/01/21 07:28:15;;;;;;;;;;;-4.20;99.90;;;;;;5036183;28;20265;-70
2024/01/21 07:30:42;;;;;;;;;;;-4.20;99.90;;;;;;5032632;28;19928;-69
2024/01/21 07:33:10;;;;;;;;;;;-4.10;99.90;;;;;;5042388;28;20151;-69
2024/01/21 07:35:37;;;;;;;;;;;-4.10;99.90;;;;;;5027148;28;19960;-70
2024/01/21 07:38:04;;;;;;;;;;;-4.10;99.90;;;;;;5025670;28;19921;-69
2024/01/21 07:40:31;;;;;;;;;;;-4.10;99.90;;;;;;5027080;28;19984;-68
2024/01/21 07:42:58;;;;;;;;;;;-4.10;99.90;;;;;;5000709;28;19922;-70
2024/01/21 07:45:24;;;;;;;;;;;-4.00;99.90;;;;;;5015375;28;19944;-72
2024/01/21 07:47:51;;;;;;;;;;;-4.10;99.90;;;;;;5012441;28;20270;-68
2024/01/21 07:50:19;;;;;;;;;;;-4.10;99.90;;;;;;5015793;28;20206;-69
2024/01/21 07:52:46;;;;;;;;;;;-4.00;99.90;;;;;;5009869;28;19957;-68
2024/01/21 07:55:13;;;;;;;;;;;-3.90;99.90;;;;;;5010517;28;19997;-68
2024/01/21 07:57:40;;;;;;;;;;;-4.00;99.90;;;;;;5006156;28;19992;-68
2024/01/21 08:00:07;;;;;;;;;;;-4.00;99.90;;;;;;5012853;28;19921;-68
2024/01/21 08:02:34;;;;;;;;;;;-4.00;99.90;;;;;;5012549;28;19921;-69
2024/01/21 08:05:01;;;;;;;;;;;-4.00;99.90;;;;;;5010797;28;19921;-68
2024/01/21 08:07:29;;;;;;;;;;;-3.90;99.90;;;;;;5010474;28;19922;-70
2024/01/21 08:09:56;;;;;;;;;;;-3.90;99.90;;;;;;5010736;28;19953;-68
2024/01/21 08:12:22;;;;;;;;;;;-3.90;99.90;;;;;;5006683;28;19922;-68
2024/01/21 08:14:49;;;;;;;;;;;-3.80;99.90;;;;;;5010833;28;19921;-68
2024/01/21 08:17:15;;;;;;;;;;;-3.80;99.90;;;;;;5013665;28;19923;-71
2024/01/21 08:19:42;;;;;;;;;;;-3.80;99.90;;;;;;5018639;28;19921;-70
2024/01/21 08:22:09;;;;;;;;;;;-3.90;99.90;;;;;;5013212;28;19981;-70
2024/01/21 08:24:37;;;;;;;;;;;-3.90;99.90;;;;;;5007412;28;19921;-72
2024/01/21 08:27:03;;;;;;;;;;;-3.90;99.90;;;;;;5009773;28;19926;-70
2024/01/21 08:29:30;;;;;;;;;;;-3.90;99.90;;;;;;5016008;28;19984;-69
2024/01/21 08:31:59;;;;;;;;;;;-3.90;99.90;;;;;;5013759;28;19928;-69
2024/01/21 08:34:25;;;;;;;;;;;-3.80;99.90;;;;;;5011114;28;20230;-68
2024/01/21 08:36:52;;;;;;;;;;;-3.70;99.90;;;;;;5007053;28;19921;-69
2024/01/21 08:39:19;;;;;;;;;;;-3.60;99.90;;;;;;5012167;28;19921;-68
2024/01/21 08:41:47;;;;;;;;;;;-3.60;99.90;;;;;;5007428;28;19922;-68
2024/01/21 08:44:13;;;;;;;;;;;-3.60;99.90;;;;;;5011808;28;19949;-69
2024/01/21 08:46:40;;;;;;;;;;;-3.60;99.90;;;;;;5014465;28;19948;-68
2024/01/21 08:49:06;;;;;;;;;;;-3.60;99.90;;;;;;4998152;28;19980;-69
2024/01/21 08:51:33;;;;;;;;;;;-3.60;99.90;;;;;;4993594;28;19928;-70
2024/01/21 08:54:00;;;;;;;;;;;-3.60;99.90;;;;;;4994317;28;20005;-69
2024/01/21 08:56:27;;;;;;;;;;;-3.60;99.90;;;;;;4996866;28;19929;-70
2024/01/21 08:58:55;;;;;;;;;;;-3.50;99.90;;;;;;4994129;28;19985;-68
2024/01/21 09:01:22;;;;;;;;;;;-3.50;99.90;;;;;;5016846;28;19928;-70
2024/01/21 09:03:48;;;;;;;;;;;-3.40;99.90;;;;;;5010794;28;19953;-70
2024/01/21 09:06:15;;;;;;;;;;;-3.40;99.90;;;;;;5021317;28;20152;-69
2024/01/21 09:08:42;;;;;;;;;;;-3.30;99.90;;;;;;5009536;28;19989;-70
2024/01/21 09:11:08;;;;;;;;;;;-3.30;99.90;;;;;;5004606;28;19930;-69
2024/01/21 09:13:35;;;;;;;;;;;-3.30;99.90;;;;;;4988044;28;19936;-68
2024/01/21 09:16:03;;;;;;;;;;;-3.20;99.90;;;;;;4993942;28;20107;-69
2024/01/21 09:18:30;;;;;;;;;;;-3.10;99.90;;;;;;4996924;28;20179;-68
2024/01/21 09:20:58;;;;;;;;;;;-3.20;99.90;;;;;;4999048;28;19926;-68
2024/01/21 09:23:24;;;;;;;;;;;-3.20;99.90;;;;;;4998281;28;19928;-68
2024/01/21 09:25:51;;;;;;;;;;;-3.10;99.90;;;;;;4995456;28;19993;-69
2024/01/21 09:28:18;;;;;;;;;;;-3.00;99.90;;;;;;4998348;28;19948;-68
2024/01/21 09:30:44;;;;;;;;;;;-3.00;99.90;;;;;;4996606;28;19953;-68
2024/01/21 09:33:12;;;;;;;;;;;-2.90;99.90;;;;;;4994008;28;19984;-68
2024/01/21 09:35:39;;;;;;;;;;;-2.80;99.90;;;;;;4997020;28;19922;-69
2024/01/21 09:38:06;;;;;;;;;;;-2.70;99.90;;;;;;4997271;28;19930;-68
2024/01/21 09:40:32;;;;;;;;;;;-2.60;99.90;;;;;;4995165;28;19988;-69
2024/01/21 09:42:59;;;;;;;;;;;-2.60;99.90;;;;;;4997482;28;19928;-68
2024/01/21 09:45:26;;;;;;;;;;;-2.50;99.90;;;;;;4995600;28;19929;-68
2024/01/21 09:47:54;;;;;;;;;;;-2.40;99.90;;;;;;4995606;28;19933;-68
2024/01/21 09:50:22;;;;;;;;;;;-2.30;99.90;;;;;;4995953;28;19930;-68
2024/01/21 09:52:49;;;;;;;;;;;-2.30;99.90;;;;;;4999675;28;19960;-69
2024/01/21 09:55:15;;;;;;;;;;;-2.20;99.90;;;;;;4996232;28;19996;-71
2024/01/21 09:57:42;;;;;;;;;;;-2.20;99.90;;;;;;4997227;28;19997;-69
2024/01/21 10:00:11;;;;;;;;;;;-2.10;99.90;;;;;;4993979;28;20158;-68
2024/01/21 10:02:37;;;;;;;;;;;-2.00;99.90;;;;;;4999569;28;19981;-68
2024/01/21 10:05:04;;;;;;;;;;;-1.90;99.90;;;;;;4994301;28;19930;-68
2024/01/21 10:07:33;;;;;;;;;;;-1.70;99.90;;;;;;4997534;28;19957;-68
2024/01/21 10:10:00;;;;;;;;;;;-1.70;99.90;;;;;;4999162;28;19959;-68
2024/01/21 10:12:26;;;;;;;;;;;-1.60;99.90;;;;;;4996302;28;19929;-68
2024/01/21 10:14:53;;;;;;;;;;;-1.40;99.90;;;;;;4993792;28;20214;-69
2024/01/21 10:17:23;;;;;;;;;;;-1.40;99.90;;;;;;4999498;28;19927;-68
2024/01/21 10:19:51;;;;;;;;;;;-1.20;99.90;;;;;;4998404;28;19996;-69
2024/01/21 10:22:18;;;;;;;;;;;-1.20;99.90;;;;;;4994922;28;19929;-70
2024/01/21 10:24:47;;;;;;;;;;;-1.10;99.90;;;;;;4997936;28;19945;-69
2024/01/21 10:27:15;;;;;;;;;;;-1.10;99.90;;;;;;4999244;28;19983;-72
2024/01/21 10:29:42;;;;;;;;;;;-1.10;99.90;;;;;;4998591;28;19921;-71
2024/01/21 10:32:10;;;;;;;;;;;-1.00;99.90;;;;;;5013762;28;19952;-70
2024/01/21 10:34:37;;;;;;;;;;;-0.90;99.90;;;;;;5028133;28;19929;-70
2024/01/21 10:37:04;;;;;;;;;;;-0.90;99.90;;;;;;5044094;28;19959;-70
2024/01/21 10:39:31;;;;;;;;;;;-0.70;99.90;;;;;;5042904;28;19968;-69
2024/01/21 10:42:00;;;;;;;;;;;-0.70;99.90;;;;;;5037429;28;20281;-70
2024/01/21 10:44:27;;;;;;;;;;;-0.60;99.90;;;;;;5026793;28;19956;-69
2024/01/21 10:46:55;;;;;;;;;;;-0.50;99.90;;;;;;5027344;28;19928;-70
2024/01/21 10:49:22;;;;;;;;;;;-0.50;99.90;;;;;;5028342;28;20156;-70
2024/01/21 10:51:52;;;;;;;;;;;-0.40;99.90;;;;;;5043913;28;20174;-70
2024/01/21 10:54:18;;;;;;;;;;;-0.40;99.90;;;;;;5042408;28;19996;-69
2024/01/21 10:56:45;;;;;;;;;;;-0.30;99.90;;;;;;5043197;28;19984;-70
2024/01/21 10:59:13;;;;;;;;;;;-0.20;99.90;;;;;;5042491;28;20234;-69
2024/01/21 11:01:40;;;;;;;;;;;-0.20;99.90;;;;;;5027037;28;20160;-69
2024/01/21 11:04:10;;;;;;;;;;;-0.10;99.90;;;;;;5026475;28;19921;-70
2024/01/21 11:06:36;;;;;;;;;;;0.00;99.90;;;;;;5026225;28;19921;-71
2024/01/21 11:09:03;;;;;;;;;;;0.10;99.90;;;;;;5026637;28;19985;-71
2024/01/21 11:11:30;;;;;;;;;;;0.10;99.90;;;;;;5027304;28;19964;-70
2024/01/21 11:13:57;;;;;;;;;;;0.10;99.90;;;;;;5026439;28;19952;-70
2024/01/21 11:16:37;;;;;;;;;;;0.30;99.90;;;;;;5035022;28;19988;-69
2024/01/21 11:19:05;;;;;;;;;;;0.40;99.90;;;;;;5043207;28;19928;-70
2024/01/21 11:21:32;;;;;;;;;;;0.50;99.90;;;;;;5027401;28;19921;-70
2024/01/21 11:23:59;;;;;;;;;;;0.60;99.90;;;;;;5026367;28;19989;-70
2024/01/21 11:26:28;;;;;;;;;;;0.70;99.90;;;;;;5026709;28;19928;-70
2024/01/21 11:28:57;;;;;;;;;;;0.70;99.90;;;;;;5025984;28;19984;-70
2024/01/21 11:31:25;;;;;;;;;;;0.80;99.90;;;;;;5026886;28;19921;-70
2024/01/21 11:34:06;;;;;;;;;;;0.80;99.90;;;;;;5031765;28;19967;-70
2024/01/21 11:36:33;;;;;;;;;;;1.00;99.90;;;;;;5027909;28;19944;-72
2024/01/21 11:39:00;;;;;;;;;;;1.20;99.90;;;;;;5028522;28;19929;-70
2024/01/21 11:41:32;;;;;;;;;;;1.30;99.90;;;;;;5025015;28;20198;-70
2024/01/21 11:44:08;;;;;;;;;;;1.50;99.90;;;;;;5024888;28;20211;-70
2024/01/21 11:46:35;;;;;;;;;;;1.70;99.90;;;;;;5024707;28;19988;-70
2024/01/21 11:49:04;;;;;;;;;;;1.70;99.90;;;;;;5019555;28;20398;-70
2024/01/21 11:51:32;;;;;;;;;;;1.80;99.90;;;;;;5024572;28;19921;-70
2024/01/21 11:53:58;;;;;;;;;;;1.70;99.90;;;;;;5024315;28;19956;-70
2024/01/21 11:56:25;;;;;;;;;;;1.60;99.90;;;;;;5024153;28;19921;-70
2024/01/21 11:58:52;;;;;;;;;;;1.50;99.90;;;;;;5024902;28;19922;-70
2024/01/21 12:01:20;;;;;;;;;;;1.50;99.90;;;;;;5023187;28;19968;-71
2024/01/21 12:03:48;;;;;;;;;;;1.50;99.90;;;;;;5023978;28;19976;-70
2024/01/21 12:06:15;;;;;;;;;;;1.40;99.90;;;;;;5023457;28;19926;-71
2024/01/21 12:08:44;;;;;;;;;;;1.30;99.90;;;;;;5023891;28;19957;-70
2024/01/21 12:11:11;;;;;;;;;;;1.30;99.90;;;;;;5024795;28;19921;-70
2024/01/21 12:13:39;;;;;;;;;;;1.30;99.90;;;;;;5024604;28;19960;-71
2024/01/21 12:16:07;;;;;;;;;;;1.30;99.90;;;;;;5023923;28;20104;-71
2024/01/21 12:18:37;;;;;;;;;;;1.30;99.90;;;;;;5024461;28;19971;-70
2024/01/21 12:21:04;;;;;;;;;;;1.30;99.90;;;;;;5023898;28;20100;-70
2024/01/21 12:23:32;;;;;;;;;;;1.30;99.90;;;;;;5024220;28;20242;-70
2024/01/21 12:26:00;;;;;;;;;;;1.30;99.90;;;;;;5020298;28;19975;-72
2024/01/21 12:28:26;;;;;;;;;;;1.30;99.90;;;;;;4995504;28;20931;-69
2024/01/21 12:30:54;;;;;;;;;;;1.30;99.90;;;;;;4994243;28;19934;-69
2024/01/21 12:33:20;;;;;;;;;;;1.40;99.90;;;;;;4992686;28;19933;-69
2024/01/21 12:35:48;;;;;;;;;;;1.40;99.90;;;;;;4992142;28;20421;-68
2024/01/21 12:38:15;;;;;;;;;;;1.40;99.90;;;;;;4989947;28;20263;-69
2024/01/21 12:40:42;;;;;;;;;;;1.40;99.90;;;;;;4993433;28;19996;-70
2024/01/21 12:43:10;;;;;;;;;;;1.60;99.90;;;;;;4993769;28;19937;-69
2024/01/21 12:45:37;;;;;;;;;;;1.80;99.90;;;;;;5002468;28;19922;-69
2024/01/21 12:48:04;;;;;;;;;;;2.20;99.90;;;;;;5023051;28;19964;-69
2024/01/21 12:50:31;;;;;;;;;;;2.50;99.90;;;;;;5013812;28;19981;-69
2024/01/21 12:52:57;;;;;;;;;;;2.60;99.90;;;;;;5019481;28;19953;-69
2024/01/21 12:55:24;;;;;;;;;;;2.80;99.90;;;;;;5023129;28;19928;-69
2024/01/21 12:57:51;;;;;;;;;;;3.10;99.90;;;;;;5007621;28;19925;-70
2024/01/21 13:00:19;;;;;;;;;;;3.40;99.90;;;;;;5019862;28;20326;-69
2024/01/21 13:02:46;;;;;;;;;;;3.70;99.90;;;;;;5016572;28;19988;-70
2024/01/21 13:05:12;;;;;;;;;;;3.90;99.90;;;;;;5017347;28;19989;-70
2024/01/21 13:07:40;;;;;;;;;;;4.00;99.90;;;;;;5015386;28;19980;-69
2024/01/21 13:10:07;;;;;;;;;;;3.90;99.90;;;;;;5021764;28;20155;-69
2024/01/21 13:12:33;;;;;;;;;;;3.80;99.90;;;;;;5018064;28;19968;-70
2024/01/21 13:15:00;;;;;;;;;;;3.60;99.90;;;;;;5021177;28;21542;-72
2024/01/21 13:17:28;;;;;;;;;;;3.50;99.90;;;;;;5020018;28;19929;-69
2024/01/21 13:19:55;;;;;;;;;;;3.20;99.90;;;;;;5002133;28;19928;-71
2024/01/21 13:22:21;;;;;;;;;;;3.10;99.90;;;;;;5018119;28;20223;-69
2024/01/21 13:24:48;;;;;;;;;;;3.00;99.90;;;;;;5019807;28;19921;-69
2024/01/21 13:27:26;;;;;;;;;;;2.90;99.90;;;;;;5017967;28;19921;-73
2024/01/21 13:32:40;;;;;;;;;;;2.70;99.90;;;;;;5022251;28;19956;-69
2024/01/21 13:35:07;;;;;;;;;;;2.50;99.90;;;;;;5015115;28;19926;-68
2024/01/21 13:37:34;;;;;;;;;;;2.50;99.90;;;;;;5015268;28;20015;-69
2024/01/21 13:40:00;;;;;;;;;;;2.50;99.90;;;;;;5021799;28;20001;-70
2024/01/21 13:42:27;;;;;;;;;;;2.40;99.90;;;;;;5020564;28;19930;-70
2024/01/21 13:44:53;;;;;;;;;;;2.30;99.90;;;;;;5015917;28;19949;-69
2024/01/21 13:47:20;;;;;;;;;;;2.20;99.90;;;;;;5018772;28;19993;-69
2024/01/21 13:49:48;;;;;;;;;;;2.10;99.90;;;;;;5015773;28;19921;-68
2024/01/21 13:52:16;;;;;;;;;;;2.10;99.90;;;;;;5018809;28;19953;-68
2024/01/21 13:54:43;;;;;;;;;;;2.00;99.90;;;;;;5019497;28;19921;-68
2024/01/21 13:57:09;;;;;;;;;;;1.90;99.90;;;;;;5016537;28;19949;-68
2024/01/21 13:59:37;;;;;;;;;;;1.90;99.90;;;;;;5019704;28;19989;-69
2024/01/21 14:02:04;;;;;;;;;;;1.90;99.90;;;;;;4991275;28;19921;-68
2024/01/21 14:04:31;;;;;;;;;;;1.80;99.90;;;;;;4997095;28;19957;-68
2024/01/21 14:06:59;;;;;;;;;;;1.80;99.90;;;;;;4995632;28;19993;-70
2024/01/21 14:09:26;;;;;;;;;;;1.80;99.90;;;;;;4998347;28;19961;-68
2024/01/21 14:11:53;;;;;;;;;;;1.70;99.90;;;;;;4999017;28;19984;-70
2024/01/21 14:14:19;;;;;;;;;;;1.60;99.90;;;;;;4996759;28;19953;-67
2024/01/21 14:16:46;;;;;;;;;;;1.60;99.90;;;;;;4998112;28;19989;-69
2024/01/21 14:19:13;;;;;;;;;;;1.60;99.90;;;;;;4998635;28;19921;-68
2024/01/21 14:21:39;;;;;;;;;;;1.60;99.90;;;;;;5000936;28;21038;-69
2024/01/21 14:24:07;;;;;;;;;;;1.60;99.90;;;;;;4998449;28;19949;-67